Time;durP1;ratioP1;P1;durP2;ratioP2;P2;SDS_P1;SDS_P2;PMS_P1;PMS_P2;Temp;Humidity;BMP_temperature;BMP_pressure;BME280_temperature;BME280_humidity;BME280_pressure;Samples;Min_cycle;Max_cycle;Signal;HPM_P1;HPM_P2
2022/07/18 00:00:07;;;;;;;4.60;1.90;;;;;;;12.21;74.30;101902.16;106088;1262;72401;-76
2022/07/18 00:02:56;;;;;;;3.30;2.00;;;;;;;12.27;72.72;101899.86;105939;1262;70333;-76
2022/07/18 00:05:25;;;;;;;4.80;1.90;;;;;;;12.21;71.89;101894.45;106124;1261;73264;-76
2022/07/18 00:07:54;;;;;;;5.60;1.90;;;;;;;12.21;71.53;101899.56;105893;1263;61398;-75
2022/07/18 00:10:23;;;;;;;6.20;2.00;;;;;;;12.20;73.62;101899.76;106033;1261;62202;-78
2022/07/18 00:12:52;;;;;;;3.80;1.60;;;;;;;12.18;74.13;101897.08;105814;1261;75060;-77
2022/07/18 00:15:21;;;;;;;3.40;1.70;;;;;;;12.16;74.25;101901.74;105906;1262;70041;-77
2022/07/18 00:17:50;;;;;;;2.60;1.70;;;;;;;12.12;74.28;101903.23;106068;1261;69091;-77
2022/07/18 00:20:19;;;;;;;3.40;1.60;;;;;;;12.09;74.26;101911.27;105966;1263;71236;-78
2022/07/18 00:22:48;;;;;;;3.40;2.20;;;;;;;12.07;73.44;101914.52;106084;1261;59536;-77
2022/07/18 00:25:17;;;;;;;3.60;2.30;;;;;;;12.09;73.14;101911.26;106072;1261;61062;-79
2022/07/18 00:27:46;;;;;;;5.30;2.20;;;;;;;12.10;72.04;101907.20;106207;1259;73082;-77
2022/07/18 00:30:15;;;;;;;6.60;2.20;;;;;;;12.16;72.97;101907.88;106194;1261;72400;-78
2022/07/18 00:32:44;;;;;;;4.30;2.00;;;;;;;12.25;73.09;101908.54;106193;1261;68605;-77
2022/07/18 00:35:13;;;;;;;4.20;2.40;;;;;;;12.31;72.92;101908.02;106133;1264;72219;-76
2022/07/18 00:37:41;;;;;;;4.00;2.10;;;;;;;12.30;72.95;101905.64;105951;1263;62347;-76
2022/07/18 00:40:11;;;;;;;2.60;2.00;;;;;;;12.16;73.44;101903.48;106122;1262;61618;-76
2022/07/18 00:42:40;;;;;;;3.40;2.00;;;;;;;12.03;73.97;101900.41;105927;1262;73198;-76
2022/07/18 00:45:10;;;;;;;2.90;1.90;;;;;;;12.01;74.32;101898.63;106227;1261;70527;-76
2022/07/18 00:47:40;;;;;;;3.80;2.00;;;;;;;11.94;74.51;101899.04;105873;1263;70157;-76
2022/07/18 00:50:10;;;;;;;3.30;1.90;;;;;;;11.81;74.65;101901.57;106025;1261;73163;-76
2022/07/18 00:52:39;;;;;;;3.60;1.70;;;;;;;11.77;74.95;101897.58;105849;1262;63449;-78
2022/07/18 00:55:08;;;;;;;2.90;1.80;;;;;;;11.76;74.97;101894.50;106076;1261;61474;-77
2022/07/18 00:57:40;;;;;;;2.50;1.70;;;;;;;11.73;75.21;101896.45;106066;1261;75070;-76
2022/07/18 01:03:02;;;;;;;4.60;2.00;;;;;;;11.52;76.01;101893.45;106007;1261;68773;-76
2022/07/18 01:05:31;;;;;;;3.80;1.50;;;;;;;11.47;76.43;101893.40;106096;1262;74027;-76
2022/07/18 01:08:00;;;;;;;4.10;2.20;;;;;;;11.44;76.47;101896.70;105956;1260;64013;-80
2022/07/18 01:10:28;;;;;;;4.40;1.90;;;;;;;11.46;76.52;101894.17;106068;1260;61645;-79
2022/07/18 01:12:57;;;;;;;4.60;1.70;;;;;;;11.49;76.26;101894.70;105899;1261;74455;-76
2022/07/18 01:15:26;;;;;;;3.00;2.10;;;;;;;11.51;76.34;101890.91;106161;1261;70189;-77
2022/07/18 01:17:55;;;;;;;6.60;2.10;;;;;;;11.45;76.34;101892.98;106210;1260;68887;-76
2022/07/18 01:20:30;;;;;;;2.60;1.70;;;;;;;11.41;76.42;101895.30;106112;1260;72098;-78
2022/07/18 01:22:59;;;;;;;2.70;1.90;;;;;;;11.39;76.58;101896.09;106133;1260;60753;-77
2022/07/18 01:25:32;;;;;;;3.90;2.80;;;;;;;11.42;76.37;101898.91;105973;1261;61254;-75
2022/07/18 01:28:01;;;;;;;3.60;1.90;;;;;;;11.42;76.48;101896.11;106108;1261;73347;-76
2022/07/18 01:30:31;;;;;;;4.20;2.20;;;;;;;11.48;76.38;101899.96;106186;1261;72511;-78
2022/07/18 01:33:02;;;;;;;4.20;2.10;;;;;;;11.59;76.07;101903.67;106135;1262;68085;-76
2022/07/18 01:35:34;;;;;;;3.30;2.00;;;;;;;11.63;76.00;101905.73;106217;1261;72114;-76
2022/07/18 01:38:04;;;;;;;3.00;2.10;;;;;;;11.65;75.32;101909.11;106153;1262;62962;-77
2022/07/18 01:40:33;;;;;;;6.40;2.00;;;;;;;11.58;75.28;101914.19;106212;1260;59446;-77
2022/07/18 01:43:02;;;;;;;3.60;1.90;;;;;;;11.47;75.89;101916.98;106101;1261;71653;-77
2022/07/18 01:45:31;;;;;;;5.10;1.90;;;;;;;11.35;76.02;101913.79;106202;1261;70167;-77
2022/07/18 01:48:03;;;;;;;5.10;2.10;;;;;;;11.21;76.16;101916.48;106283;1261;69865;-76
2022/07/18 01:50:32;;;;;;;2.90;2.10;;;;;;;11.08;77.35;101914.44;106265;1260;74658;-77
2022/07/18 01:53:01;;;;;;;4.50;2.10;;;;;;;10.99;77.87;101916.46;106316;1261;62511;-76
2022/07/18 01:55:29;;;;;;;5.90;1.90;;;;;;;10.96;78.08;101913.53;106322;1261;60431;-76
2022/07/18 01:57:59;;;;;;;4.10;2.20;;;;;;;10.97;78.03;101917.29;106409;1260;74511;-78
2022/07/18 02:00:27;;;;;;;8.60;2.30;;;;;;;10.96;77.99;101918.23;106107;1262;72732;-76
2022/07/18 02:02:58;;;;;;;6.60;2.40;;;;;;;10.93;78.46;101917.55;106155;1262;71163;-77
2022/07/18 02:05:30;;;;;;;2.90;2.20;;;;;;;10.89;77.81;101917.02;106073;1262;70406;-77
2022/07/18 02:08:00;;;;;;;5.10;2.20;;;;;;;10.83;76.97;101919.79;106309;1261;60973;-78
2022/07/18 02:10:31;;;;;;;6.80;2.70;;;;;;;10.72;76.56;101918.14;106278;1260;60420;-74
2022/07/18 02:13:04;;;;;;;4.30;2.40;;;;;;;10.57;78.31;101916.48;105972;1263;72534;-78
2022/07/18 02:15:34;;;;;;;2.80;2.10;;;;;;;10.51;79.88;101917.38;106168;1260;70450;-74
2022/07/18 02:18:06;;;;;;;5.50;2.10;;;;;;;10.49;78.55;101915.36;105954;1263;71073;-77
2022/07/18 02:20:36;;;;;;;5.90;2.00;;;;;;;10.47;78.42;101916.15;106073;1260;72869;-75
2022/07/18 02:23:07;;;;;;;3.70;2.40;;;;;;;10.43;78.76;101918.83;106128;1260;60062;-75
2022/07/18 02:25:36;;;;;;;4.30;2.40;;;;;;;10.35;77.60;101921.48;106169;1260;59722;-76
2022/07/18 02:28:05;;;;;;;3.50;2.30;;;;;;;10.28;78.97;101926.05;106091;1262;72528;-77
2022/07/18 02:30:34;;;;;;;2.90;1.90;;;;;;;10.26;80.05;101926.11;106274;1262;70743;-76
2022/07/18 02:33:03;;;;;;;4.00;2.20;;;;;;;10.29;80.29;101929.27;106224;1261;69052;-77
2022/07/18 02:35:32;;;;;;;3.20;2.10;;;;;;;10.27;79.09;101927.98;106114;1262;71286;-78
2022/07/18 02:38:01;;;;;;;3.50;2.30;;;;;;;10.19;78.12;101925.80;106114;1261;59641;-76
2022/07/18 02:40:30;;;;;;;4.50;2.50;;;;;;;10.09;78.94;101929.96;106030;1260;59603;-78
2022/07/18 02:43:00;;;;;;;7.60;2.20;;;;;;;10.06;78.86;101925.58;106175;1261;73344;-77
2022/07/18 02:45:29;;;;;;;7.80;2.20;;;;;;;10.11;79.74;101931.77;106292;1260;72521;-76
2022/07/18 02:47:58;;;;;;;4.40;2.20;;;;;;;10.14;78.76;101932.98;106185;1261;68999;-76
2022/07/18 02:50:30;;;;;;;7.30;2.40;;;;;;;10.19;78.85;101934.99;106460;1260;73983;-76
2022/07/18 02:52:59;;;;;;;6.20;2.20;;;;;;;10.28;79.50;101938.03;106276;1261;61772;-77
2022/07/18 02:55:28;;;;;;;4.40;2.80;;;;;;;10.34;78.92;101941.36;106355;1261;60944;-76
2022/07/18 02:57:57;;;;;;;5.40;2.60;;;;;;;10.40;77.44;101941.41;106421;1260;74043;-76
2022/07/18 03:00:25;;;;;;;4.50;2.30;;;;;;;10.43;77.29;101941.27;106360;1262;73338;-75
2022/07/18 03:02:54;;;;;;;4.20;2.50;;;;;;;10.49;77.41;101944.10;106333;1263;67749;-79
2022/07/18 03:05:23;;;;;;;4.80;2.40;;;;;;;10.60;77.26;101950.27;106151;1263;72125;-78
2022/07/18 03:07:52;;;;;;;3.00;2.10;;;;;;;10.75;76.94;101944.96;106221;1261;60815;-75
2022/07/18 03:10:21;;;;;;;4.70;2.20;;;;;;;10.87;76.30;101946.76;106184;1262;60707;-78
2022/07/18 03:12:50;;;;;;;4.70;2.40;;;;;;;11.00;75.62;101949.91;106107;1261;75173;-77
2022/07/18 03:15:19;;;;;;;5.40;2.10;;;;;;;11.06;75.56;101947.13;106369;1261;72652;-77
2022/07/18 03:17:47;;;;;;;7.00;2.50;;;;;;;11.09;75.60;101949.21;106317;1261;71011;-77
2022/07/18 03:20:16;;;;;;;3.80;2.00;;;;;;;11.12;75.88;101950.31;106071;1263;71841;-79
2022/07/18 03:22:45;;;;;;;10.40;2.30;;;;;;;11.15;75.29;101949.77;106037;1264;60258;-77
2022/07/18 03:25:14;;;;;;;4.30;2.20;;;;;;;11.20;75.16;101944.44;106005;1262;61241;-79
2022/07/18 03:27:43;;;;;;;11.60;4.50;;;;;;;11.29;75.47;101949.54;106372;1261;74262;-76
2022/07/18 03:30:13;;;;;;;4.10;2.50;;;;;;;11.40;74.81;101946.13;106107;1261;71299;-75
2022/07/18 03:32:42;;;;;;;7.00;3.00;;;;;;;11.53;73.90;101948.88;105995;1264;69759;-76
2022/07/18 03:35:11;;;;;;;6.20;2.50;;;;;;;11.69;73.67;101946.92;106162;1261;71380;-76
2022/07/18 03:37:40;;;;;;;7.00;2.20;;;;;;;11.82;73.22;101945.84;106209;1264;59666;-75
2022/07/18 03:40:10;;;;;;;3.50;2.10;;;;;;;11.98;72.47;101952.61;105985;1263;60634;-78
2022/07/18 03:42:40;;;;;;;6.90;2.60;;;;;;;12.10;71.52;101949.29;106269;1261;73241;-77
2022/07/18 03:45:09;;;;;;;8.40;3.00;;;;;;;12.19;71.52;101944.36;106094;1264;72401;-78
2022/07/18 03:47:38;;;;;;;3.90;2.30;;;;;;;12.31;70.92;101947.66;106320;1261;71145;-77
2022/07/18 03:50:08;;;;;;;4.10;2.40;;;;;;;12.41;70.90;101947.91;106356;1263;72667;-76
2022/07/18 03:52:37;;;;;;;5.40;2.80;;;;;;;12.53;70.07;101951.76;106104;1264;59705;-78
2022/07/18 03:55:07;;;;;;;4.20;2.60;;;;;;;12.60;69.16;101954.09;106159;1264;61816;-77
2022/07/18 03:57:35;;;;;;;6.70;2.80;;;;;;;12.67;69.53;101955.94;106284;1261;74409;-79
2022/07/18 04:00:09;;;;;;;6.40;2.90;;;;;;;12.76;68.83;101960.67;106317;1261;72132;-77
2022/07/18 04:02:47;;;;;;;8.10;3.30;;;;;;;12.85;68.74;101955.58;106138;1263;69974;-78
2022/07/18 04:05:16;;;;;;;9.10;3.20;;;;;;;12.92;68.58;101959.10;106498;1261;74489;-77
2022/07/18 04:07:45;;;;;;;5.80;2.80;;;;;;;13.00;68.09;101964.22;106204;1262;62931;-75
2022/07/18 04:10:14;;;;;;;6.40;3.30;;;;;;;13.08;67.88;101962.49;106192;1263;61049;-79
2022/07/18 04:12:52;;;;;;;8.50;3.40;;;;;;;13.11;67.63;101962.16;106030;1263;74411;-75
2022/07/18 04:15:24;;;;;;;7.50;3.40;;;;;;;13.21;67.44;101962.95;106229;1261;72237;-77
2022/07/18 04:17:53;;;;;;;9.20;3.20;;;;;;;13.26;67.51;101962.23;106149;1261;69213;-79
2022/07/18 04:20:22;;;;;;;5.90;3.00;;;;;;;13.32;67.69;101966.60;105907;1264;72922;-76
2022/07/18 04:22:55;;;;;;;6.00;2.90;;;;;;;13.38;67.99;101964.45;106101;1261;60806;-77
2022/07/18 04:25:28;;;;;;;5.40;2.60;;;;;;;13.49;68.03;101970.23;106087;1262;61810;-78
2022/07/18 04:27:57;;;;;;;8.00;3.00;;;;;;;13.61;67.65;101969.43;106070;1264;73940;-78
2022/07/18 04:30:27;;;;;;;6.20;2.60;;;;;;;13.67;67.34;101966.77;106173;1262;70801;-78
2022/07/18 04:32:57;;;;;;;4.90;2.50;;;;;;;13.75;66.85;101968.34;106169;1264;69083;-78
2022/07/18 04:35:26;;;;;;;3.80;2.20;;;;;;;13.85;66.14;101967.38;106136;1261;71268;-77
2022/07/18 04:37:55;;;;;;;6.00;2.50;;;;;;;13.92;65.86;101972.31;106028;1262;60563;-78
2022/07/18 04:40:24;;;;;;;4.90;2.50;;;;;;;14.00;65.27;101973.36;105965;1264;60268;-78
2022/07/18 04:42:53;;;;;;;5.00;2.20;;;;;;;14.10;64.26;101971.27;105991;1261;74332;-78
2022/07/18 04:45:23;;;;;;;5.20;2.60;;;;;;;14.22;63.93;101973.45;106227;1263;72211;-79
2022/07/18 04:47:55;;;;;;;7.70;2.50;;;;;;;14.32;63.68;101973.83;106250;1261;71303;-76
2022/07/18 04:50:24;;;;;;;4.80;2.50;;;;;;;14.44;62.99;101976.64;106223;1261;72610;-77
2022/07/18 04:52:53;;;;;;;5.20;2.60;;;;;;;14.58;62.65;101973.67;106181;1263;59852;-78
2022/07/18 04:55:23;;;;;;;4.60;2.20;;;;;;;14.68;62.29;101977.38;106087;1263;62893;-75
2022/07/18 04:57:52;;;;;;;13.10;5.20;;;;;;;14.75;61.74;101974.52;105970;1264;73105;-76
2022/07/18 05:00:27;;;;;;;10.80;4.80;;;;;;;14.87;61.41;101971.81;105885;1261;71274;-77
2022/07/18 05:03:06;;;;;;;14.00;6.20;;;;;;;14.97;61.12;101967.43;106210;1261;67734;-78
2022/07/18 05:05:36;;;;;;;5.20;2.60;;;;;;;15.08;60.84;101967.31;106075;1263;73974;-76
2022/07/18 05:08:13;;;;;;;4.70;1.80;;;;;;;15.19;60.94;101971.06;106138;1262;61945;-78
2022/07/18 05:10:42;;;;;;;3.70;1.70;;;;;;;15.33;60.13;101971.83;106170;1264;61190;-76
2022/07/18 05:13:11;;;;;;;4.80;1.90;;;;;;;15.47;59.30;101973.22;106182;1262;74827;-78
2022/07/18 05:15:41;;;;;;;4.40;1.80;;;;;;;15.61;58.55;101976.26;106187;1262;72455;-76
2022/07/18 05:18:10;;;;;;;4.90;2.00;;;;;;;15.76;58.47;101977.14;106095;1263;70717;-78
2022/07/18 05:20:38;;;;;;;5.20;1.90;;;;;;;15.89;58.31;101975.06;106188;1262;73881;-78
2022/07/18 05:23:15;;;;;;;6.40;2.10;;;;;;;16.02;57.78;101972.02;106003;1263;60178;-78
2022/07/18 05:25:44;;;;;;;3.30;1.80;;;;;;;16.15;57.08;101977.00;106208;1261;61760;-77
2022/07/18 05:28:12;;;;;;;4.50;2.20;;;;;;;16.25;56.59;101980.29;106460;1262;75128;-79
2022/07/18 05:30:41;;;;;;;4.90;2.30;;;;;;;16.35;56.11;101977.02;106356;1261;71007;-79
2022/07/18 05:33:10;;;;;;;4.00;2.10;;;;;;;16.46;56.09;101972.52;106145;1264;69610;-78
2022/07/18 05:36:15;;;;;;;5.40;1.60;;;;;;;16.58;55.44;101972.13;106146;1263;72811;-77
2022/07/18 05:38:44;;;;;;;5.70;1.80;;;;;;;16.69;54.69;101978.46;106395;1261;60282;-78
2022/07/18 05:41:14;;;;;;;8.40;2.00;;;;;;;16.75;55.04;101972.94;106164;1264;60884;-77
2022/07/18 05:43:43;;;;;;;5.80;1.70;;;;;;;16.85;54.81;101973.73;106061;1263;72628;-79
2022/07/18 05:46:13;;;;;;;2.40;1.60;;;;;;;16.95;54.26;101975.92;106012;1263;72059;-76
2022/07/18 05:48:51;;;;;;;3.10;1.60;;;;;;;17.03;53.92;101964.37;106279;1261;69098;-76
2022/07/18 05:51:31;;;;;;;4.50;1.80;;;;;;;17.13;53.86;101962.85;105887;1267;73397;-77
2022/07/18 05:54:00;;;;;;;5.20;1.70;;;;;;;17.26;53.81;101966.41;106061;1265;59723;-77
2022/07/18 05:56:29;;;;;;;6.20;2.00;;;;;;;17.36;53.42;101964.56;105977;1265;60548;-79
2022/07/18 05:58:58;;;;;;;3.70;1.60;;;;;;;17.42;53.24;101964.38;106187;1263;75002;-78
2022/07/18 06:01:27;;;;;;;2.80;1.50;;;;;;;17.49;52.64;101959.42;105978;1266;70929;-82
2022/07/18 06:03:56;;;;;;;2.50;1.40;;;;;;;17.56;52.47;101961.64;106172;1264;69267;-76
2022/07/18 06:06:25;;;;;;;2.60;1.60;;;;;;;17.64;52.24;101956.72;105984;1267;72985;-78
2022/07/18 06:08:53;;;;;;;3.60;1.40;;;;;;;17.70;51.97;101961.21;106061;1267;61315;-79
2022/07/18 06:11:22;;;;;;;3.70;1.40;;;;;;;17.76;51.96;101955.99;106185;1265;60523;-79
2022/07/18 06:13:51;;;;;;;16.80;3.00;;;;;;;17.86;51.74;101955.84;105915;1267;63119;-79
2022/07/18 06:16:21;;;;;;;3.40;1.50;;;;;;;17.97;51.41;101948.18;106200;1264;69718;-81
2022/07/18 06:18:49;;;;;;;5.50;1.80;;;;;;;18.08;51.21;101954.50;105992;1263;69881;-78
2022/07/18 06:21:18;;;;;;;4.00;2.30;;;;;;;18.16;50.80;101951.50;106145;1264;72260;-81
2022/07/18 06:23:47;;;;;;;3.40;1.50;;;;;;;18.19;50.56;101946.14;106196;1264;58288;-78
2022/07/18 06:26:16;;;;;;;10.80;1.60;;;;;;;18.27;50.51;101954.17;105991;1263;61181;-77
2022/07/18 06:28:45;;;;;;;2.30;1.20;;;;;;;18.30;50.21;101949.46;106306;1261;74278;-77
2022/07/18 06:31:16;;;;;;;3.30;1.50;;;;;;;18.32;50.11;101944.23;106374;1263;70821;-79
2022/07/18 06:33:45;;;;;;;3.10;1.50;;;;;;;18.40;50.29;101945.23;106299;1263;60115;-77
2022/07/18 06:36:14;;;;;;;4.10;1.50;;;;;;;18.53;49.95;101949.77;106390;1261;73706;-78
2022/07/18 06:38:43;;;;;;;3.30;1.40;;;;;;;18.65;49.54;101946.45;106338;1262;62077;-78
2022/07/18 06:41:12;;;;;;;2.90;1.40;;;;;;;18.72;48.98;101946.02;106516;1262;61708;-79
2022/07/18 06:43:42;;;;;;;1.80;1.10;;;;;;;18.82;48.89;101944.42;106404;1261;73161;-78
2022/07/18 06:46:10;;;;;;;2.50;1.30;;;;;;;18.92;48.39;101937.46;106323;1263;72545;-80
2022/07/18 06:48:39;;;;;;;5.10;1.60;;;;;;;18.95;48.44;101938.92;106384;1263;62488;-78
2022/07/18 06:51:08;;;;;;;2.50;1.30;;;;;;;18.99;48.45;101937.30;106235;1263;63621;-82
2022/07/18 06:53:37;;;;;;;4.10;1.50;;;;;;;19.07;48.13;101938.16;106218;1263;59555;-74
2022/07/18 06:56:06;;;;;;;5.10;1.70;;;;;;;19.09;48.43;101933.45;106227;1263;61483;-77
2022/07/18 06:58:35;;;;;;;2.30;1.50;;;;;;;19.19;48.27;101931.09;106101;1263;64671;-74
2022/07/18 07:01:04;;;;;;;3.70;1.70;;;;;;;19.33;48.38;101932.64;106382;1262;71926;-74
2022/07/18 07:03:33;;;;;;;3.30;1.50;;;;;;;19.44;48.10;101929.21;106152;1264;59752;-77
2022/07/18 07:06:02;;;;;;;3.90;1.90;;;;;;;19.53;47.52;101927.29;106138;1262;73405;-82
2022/07/18 07:08:30;;;;;;;4.50;1.70;;;;;;;19.57;47.52;101922.23;106359;1263;61653;-77
2022/07/18 07:10:59;;;;;;;3.50;1.60;;;;;;;19.68;47.27;101920.28;106388;1263;58941;-79
2022/07/18 07:13:28;;;;;;;2.70;1.60;;;;;;;19.79;46.95;101920.73;106369;1262;63149;-78
2022/07/18 07:15:57;;;;;;;3.50;1.60;;;;;;;19.86;46.49;101920.43;105970;1265;71100;-76
2022/07/18 07:18:26;;;;;;;5.80;1.40;;;;;;;19.95;46.14;101919.28;106362;1261;71246;-78
2022/07/18 07:20:54;;;;;;;5.00;1.40;;;;;;;19.99;46.19;101925.77;106137;1263;63287;-73
2022/07/18 07:23:23;;;;;;;5.70;1.90;;;;;;;20.04;46.02;101922.44;106357;1263;59594;-79
2022/07/18 07:25:57;;;;;;;3.60;1.40;;;;;;;20.11;45.97;101915.94;106348;1263;59018;-79
2022/07/18 07:28:27;;;;;;;4.40;1.30;;;;;;;20.22;45.57;101914.94;106080;1263;72677;-79
2022/07/18 07:30:56;;;;;;;4.10;1.30;;;;;;;20.32;45.10;101913.11;106422;1263;60991;-77
2022/07/18 07:33:25;;;;;;;2.90;1.20;;;;;;;20.40;44.99;101911.84;106459;1263;70067;-78
2022/07/18 07:36:00;;;;;;;2.00;1.30;;;;;;;20.46;45.01;101913.42;106290;1263;74572;-79
2022/07/18 07:38:29;;;;;;;1.80;1.10;;;;;;;20.56;44.97;101911.39;106166;1262;62762;-78
2022/07/18 07:41:01;;;;;;;3.00;1.50;;;;;;;20.67;44.49;101902.36;106283;1263;61946;-81
2022/07/18 07:43:29;;;;;;;2.90;1.10;;;;;;;20.71;44.43;101900.59;106190;1263;75519;-80
2022/07/18 07:45:58;;;;;;;4.40;1.00;;;;;;;20.81;43.68;101904.91;106283;1263;62273;-83
2022/07/18 07:48:27;;;;;;;3.20;1.10;;;;;;;20.96;42.69;101898.85;106259;1263;59347;-77
2022/07/18 07:50:56;;;;;;;3.00;1.00;;;;;;;21.00;42.00;101900.89;106325;1262;62609;-76
2022/07/18 07:53:25;;;;;;;3.80;0.80;;;;;;;21.02;42.01;101904.75;106229;1263;59677;-80
2022/07/18 07:55:54;;;;;;;2.70;1.00;;;;;;;20.99;42.21;101893.69;106238;1263;59057;-76
2022/07/18 07:58:24;;;;;;;2.00;1.10;;;;;;;21.08;42.12;101899.09;106344;1263;63874;-76
2022/07/18 08:00:54;;;;;;;3.90;1.00;;;;;;;21.21;41.81;101896.83;106353;1262;61559;-78
2022/07/18 08:03:23;;;;;;;3.20;1.20;;;;;;;21.12;41.00;101896.73;106392;1263;70622;-81
2022/07/18 08:05:51;;;;;;;2.40;1.00;;;;;;;21.14;41.29;101893.29;106422;1262;65990;-81
2022/07/18 08:08:20;;;;;;;5.60;1.10;;;;;;;21.31;40.42;101900.97;106165;1263;59779;-79
2022/07/18 08:10:49;;;;;;;4.20;1.00;;;;;;;21.32;40.37;101898.25;106380;1261;57935;-79
2022/07/18 08:13:18;;;;;;;3.60;1.40;;;;;;;21.41;39.94;101895.95;106420;1263;73799;-79
2022/07/18 08:15:47;;;;;;;1.50;0.90;;;;;;;21.48;40.01;101897.80;106396;1263;73074;-82
2022/07/18 08:18:16;;;;;;;2.40;1.10;;;;;;;21.47;39.94;101891.63;106203;1263;69949;-79
2022/07/18 08:20:44;;;;;;;2.00;1.10;;;;;;;21.58;40.03;101886.85;106413;1263;73930;-76
2022/07/18 08:23:13;;;;;;;4.30;1.00;;;;;;;21.72;38.99;101881.87;106137;1263;58305;-81
2022/07/18 08:25:44;;;;;;;2.20;0.90;;;;;;;21.83;38.37;101892.27;106401;1263;59700;-79
2022/07/18 08:28:14;;;;;;;1.80;0.90;;;;;;;21.80;38.02;101890.04;106210;1263;63895;-80
2022/07/18 08:30:43;;;;;;;1.80;0.90;;;;;;;21.76;38.21;101883.92;106069;1263;72042;-78
2022/07/18 08:33:11;;;;;;;3.10;0.80;;;;;;;21.87;38.11;101892.36;106204;1263;69324;-81
2022/07/18 08:35:41;;;;;;;1.00;0.80;;;;;;;22.01;37.32;101889.51;106351;1263;63440;-79
2022/07/18 08:38:10;;;;;;;2.30;1.20;;;;;;;22.05;36.99;101887.67;106084;1263;59660;-81
2022/07/18 08:40:39;;;;;;;2.80;1.10;;;;;;;22.01;36.90;101881.59;106467;1262;60011;-80
2022/07/18 08:43:08;;;;;;;1.40;0.90;;;;;;;22.15;36.59;101879.77;106227;1264;64466;-80
2022/07/18 08:45:58;;;;;;;2.00;1.10;;;;;;;22.24;36.17;101879.55;106362;1262;60867;-83
2022/07/18 08:48:27;;;;;;;3.30;0.90;;;;;;;22.33;35.95;101877.60;106110;1263;68901;-79
2022/07/18 08:50:56;;;;;;;3.00;1.20;;;;;;;22.42;35.59;101871.25;106095;1263;63932;-79
2022/07/18 08:53:26;;;;;;;3.40;1.10;;;;;;;22.58;35.26;101869.62;106466;1263;59727;-79
2022/07/18 08:55:56;;;;;;;3.50;1.10;;;;;;;22.78;35.31;101875.27;106206;1263;60924;-77
2022/07/18 08:58:27;;;;;;;4.90;1.20;;;;;;;22.96;34.88;101870.33;106269;1263;63611;-80
2022/07/18 09:01:14;;;;;;;3.80;1.10;;;;;;;23.08;34.63;101870.69;105983;1263;72526;-76
2022/07/18 09:03:43;;;;;;;3.30;0.90;;;;;;;23.13;34.30;101868.52;106052;1263;70051;-79
2022/07/18 09:06:13;;;;;;;3.60;1.10;;;;;;;23.16;34.20;101864.86;106263;1262;74483;-83
2022/07/18 09:09:14;;;;;;;2.20;0.90;;;;;;;23.33;34.21;101869.77;106184;1263;62259;-78
2022/07/18 09:12:09;;;;;;;2.70;0.90;;;;;;;23.41;33.36;101862.70;106076;1263;60387;-78
2022/07/18 09:14:46;;;;;;;2.70;0.80;;;;;;;23.49;33.07;101859.09;106356;1262;64317;-77
2022/07/18 09:17:18;;;;;;;2.80;0.90;;;;;;;23.57;32.51;101862.05;106277;1263;72339;-80
2022/07/18 09:20:04;;;;;;;1.80;0.90;;;;;;;23.52;32.06;101862.76;106364;1263;60466;-79
2022/07/18 09:22:36;;;;;;;5.90;0.90;;;;;;;23.36;32.19;101854.47;106120;1263;62590;-81
2022/07/18 09:25:32;;;;;;;2.10;0.70;;;;;;;23.36;32.27;101854.33;106213;1263;58639;-76
2022/07/18 09:28:09;;;;;;;4.40;1.00;;;;;;;23.28;32.43;101839.57;106214;1263;57996;-79
2022/07/18 09:30:38;;;;;;;7.50;1.20;;;;;;;23.42;32.32;101846.41;105941;1266;63960;-77
2022/07/18 09:33:10;;;;;;;1.70;1.00;;;;;;;23.51;31.86;101846.10;106191;1264;61115;-80
2022/07/18 09:35:47;;;;;;;2.10;0.90;;;;;;;23.57;32.06;101845.29;106247;1263;59372;-82
2022/07/18 09:38:23;;;;;;;7.70;1.40;;;;;;;23.62;32.24;101845.10;106050;1264;63423;-77
2022/07/18 09:40:54;;;;;;;1.70;0.80;;;;;;;23.71;31.40;101846.77;106088;1264;60424;-79
2022/07/18 09:43:27;;;;;;;2.40;0.70;;;;;;;23.66;31.66;101842.90;106303;1263;61135;-78
2022/07/18 09:45:56;;;;;;;1.90;1.00;;;;;;;23.88;31.45;101837.23;106340;1263;64483;-77
2022/07/18 09:48:27;;;;;;;4.00;0.80;;;;;;;23.96;31.04;101834.98;106148;1263;61871;-78
2022/07/18 09:51:05;;;;;;;2.20;1.00;;;;;;;24.00;31.10;101838.35;106195;1264;59627;-81
2022/07/18 09:53:43;;;;;;;4.00;0.80;;;;;;;24.12;30.94;101833.50;105905;1267;64545;-77
2022/07/18 09:56:23;;;;;;;2.00;0.80;;;;;;;24.24;30.46;101833.58;106097;1264;58033;-77
2022/07/18 09:58:55;;;;;;;1.60;0.80;;;;;;;24.39;30.42;101824.70;106246;1263;61625;-79
2022/07/18 10:01:30;;;;;;;1.70;0.80;;;;;;;24.32;30.18;101836.92;106036;1263;63762;-77
2022/07/18 10:04:02;;;;;;;6.30;1.20;;;;;;;24.27;30.89;101827.64;105988;1264;72562;-80
2022/07/18 10:06:32;;;;;;;3.60;0.90;;;;;;;24.41;30.65;101822.36;105950;1263;62027;-77
2022/07/18 10:09:01;;;;;;;1.90;0.90;;;;;;;24.61;30.12;101828.60;105987;1264;63825;-80
2022/07/18 10:11:31;;;;;;;1.30;0.80;;;;;;;24.56;29.79;101816.55;106018;1263;61404;-74
2022/07/18 10:14:01;;;;;;;4.60;0.70;;;;;;;24.45;29.57;101814.84;106268;1263;57953;-79
2022/07/18 10:16:31;;;;;;;2.80;1.10;;;;;;;24.46;29.65;101815.44;106150;1263;74642;-80
2022/07/18 10:19:00;;;;;;;1.40;0.80;;;;;;;24.58;29.83;101813.16;106167;1264;72000;-80
2022/07/18 10:21:30;;;;;;;2.40;0.70;;;;;;;24.63;29.48;101819.73;106029;1264;71123;-78
2022/07/18 10:24:01;;;;;;;1.40;0.80;;;;;;;24.63;29.51;101818.17;106006;1262;74716;-81
2022/07/18 10:26:31;;;;;;;4.20;0.90;;;;;;;24.75;29.35;101815.95;105574;1264;653725;-79
2022/07/18 10:29:03;;;;;;;4.10;0.80;;;;;;;24.82;28.67;101808.92;106310;1263;62002;-78
2022/07/18 10:31:57;;;;;;;1.70;0.80;;;;;;;24.61;28.79;101808.36;106314;1263;74533;-79
2022/07/18 10:34:33;;;;;;;3.10;0.70;;;;;;;24.71;28.62;101810.73;106170;1264;61361;-78
2022/07/18 10:37:03;;;;;;;2.20;0.90;;;;;;;24.89;28.35;101803.09;106150;1263;70615;-77
2022/07/18 10:39:45;;;;;;;1.70;0.90;;;;;;;25.15;28.51;101800.50;106114;1263;74588;-76
2022/07/18 10:42:18;;;;;;;1.60;0.80;;;;;;;25.47;28.12;101795.84;106088;1263;59688;-79
2022/07/18 10:44:48;;;;;;;3.20;1.30;;;;;;;25.68;27.69;101795.56;106199;1263;59349;-81
2022/07/18 10:47:23;;;;;;;1.80;0.90;;;;;;;25.56;27.65;101793.60;105966;1263;72687;-77
2022/07/18 10:49:52;;;;;;;2.90;1.10;;;;;;;25.32;27.65;101790.09;106057;1263;61799;-81
2022/07/18 10:52:30;;;;;;;2.20;1.30;;;;;;;25.11;28.08;101794.61;106129;1263;60203;-82
2022/07/18 10:55:03;;;;;;;4.20;0.90;;;;;;;24.99;27.81;101796.75;106228;1263;74018;-75
2022/07/18 10:57:42;;;;;;;1.20;0.60;;;;;;;24.98;27.62;101792.27;106280;1263;59648;-79
2022/07/18 11:00:14;;;;;;;3.50;0.80;;;;;;;25.14;27.48;101787.83;106157;1263;60493;-80
2022/07/18 11:03:04;;;;;;;;;;;;;;;25.22;27.24;101792.11;106337;1263;72821;-79
2022/07/18 11:05:52;;;;;;;2.70;0.80;;;;;;;25.76;26.90;101778.40;106340;1263;61784;-78
2022/07/18 11:08:24;;;;;;;2.30;0.80;;;;;;;25.79;26.77;101777.91;106249;1263;59370;-78
2022/07/18 11:11:01;;;;;;;5.30;0.90;;;;;;;25.60;26.31;101784.06;106334;1263;72332;-80
2022/07/18 11:13:36;;;;;;;3.70;0.70;;;;;;;25.35;26.65;101787.73;106357;1263;59635;-81
2022/07/18 11:16:12;;;;;;;2.90;0.70;;;;;;;25.28;26.38;101787.48;106363;1263;59674;-79
2022/07/18 11:18:44;;;;;;;2.80;0.90;;;;;;;25.44;25.86;101776.13;106170;1264;62934;-77
2022/07/18 11:21:25;;;;;;;1.50;0.80;;;;;;;26.21;25.71;101773.10;106350;1263;61712;-77
2022/07/18 11:24:02;;;;;;;5.00;1.10;;;;;;;26.23;25.37;101775.66;105905;1264;59428;-76
2022/07/18 11:26:32;;;;;;;1.40;0.70;;;;;;;26.04;25.69;101775.17;106223;1261;62589;-78
2022/07/18 11:29:09;;;;;;;1.90;0.70;;;;;;;26.45;25.23;101764.82;105989;1263;59623;-79
2022/07/18 11:31:49;;;;;;;1.40;0.70;;;;;;;26.65;25.43;101766.40;106198;1264;58429;-77
2022/07/18 11:34:20;;;;;;;3.10;0.90;;;;;;;26.70;25.54;101770.58;106226;1263;63877;-75
2022/07/18 11:37:04;;;;;;;3.20;0.90;;;;;;;26.41;25.00;101767.12;106056;1264;70851;-81